Darstellungsparameter: Aktuell verwendete Einstellungen:
Skalierung der Graphiken ... ?
xyx+y,   Skalierungsfaktor:      Skalierung: Modus: x, Faktor: 1
Darstellungszeitraum ... ?
Vom - - bis: - -   Zeitraum: 17.02.2022 - 17.02.2022
Min/Max/Avg-Anzeige ... ?
Zeige MMA aktuell
Zeige MMA Monat
Zeige MMA alles
Zeige --A aktuell
Zeige --A Monat
Zeige --A alles
Keine MMA-Anzeige
MMA:
Average (ber die Originaldaten)
MMA-Basis: 17.02.2022 - 17.02.2022
Quicknavigation für Darstellung... ?
Tage:      1T, 2T, 3T, 5T -1T -2T -3T -5T +1T +2T +3T +5T
Wochen: 1W, 2W, 3W -1W -2W -3W +1W +2W +3W
Monate: 1M, 3M, 6M -1M -3M -6M +1M +3M +6M
Jahre:    1J, 3J, 5J, 10J -1J -3J -5J -10J +1J +3J +5J +10J
Nutze für die Darstellung ... ?
Originaldaten oder Mittelwerte auf ...
Stundenbasis Tagesbasis Wochenbasis
Monatsbasis Jahresbasis      Datenbasis: Original-Daten
Darstellen als:
Statistik (Auto) Statistik J:M      Darstellung:
Zur Graphik,    zurück zur Übersicht aller Sensoren.
 
Tabellarische Datenbersicht: ?
 
Sensor: Nr:Datum:Temp:Abs-Feuchte:Windchill:Wind:
Aussen-T/F 1 17-02-2022 00:00:00 14.3 C 10.57 g/m*3 14.3 C 27.4 km/h
2 17-02-2022 00:05:00 14.3 C 10.44 g/m*3 14.3 C 27.4 km/h
3 17-02-2022 00:10:00 14.3 C 10.44 g/m*3 14.3 C 29 km/h
4 17-02-2022 00:15:00 14.3 C 10.44 g/m*3 14.3 C 24.1 km/h
5 17-02-2022 00:20:00 14.3 C 10.44 g/m*3 14.3 C 24.1 km/h
6 17-02-2022 00:25:00 14.3 C 10.44 g/m*3 14.3 C 19.3 km/h
7 17-02-2022 00:30:00 14.3 C 10.44 g/m*3 14.3 C 22.5 km/h
8 17-02-2022 00:35:00 14.2 C 10.38 g/m*3 14.2 C 29 km/h
9 17-02-2022 00:40:00 14.2 C 10.5 g/m*3 14.2 C 17.7 km/h
10 17-02-2022 00:45:00 14.1 C 10.44 g/m*3 14.1 C 29 km/h
11 17-02-2022 00:50:00 14.1 C 10.44 g/m*3 14.1 C 27.4 km/h
12 17-02-2022 00:55:00 14.1 C 10.44 g/m*3 14.1 C 32.2 km/h
13 17-02-2022 01:00:00 14.1 C 10.44 g/m*3 14.1 C 19.3 km/h
14 17-02-2022 01:05:00 14.1 C 10.32 g/m*3 14.1 C 35.4 km/h
15 17-02-2022 01:10:00 14.2 C 10.38 g/m*3 14.2 C 35.4 km/h
16 17-02-2022 01:15:00 14.2 C 10.38 g/m*3 14.2 C 24.1 km/h
17 17-02-2022 01:20:00 14.1 C 10.44 g/m*3 14.1 C 29 km/h
18 17-02-2022 01:25:00 14 C 10.37 g/m*3 14 C 22.5 km/h
19 17-02-2022 01:30:00 13.9 C 10.31 g/m*3 13.9 C 19.3 km/h
20 17-02-2022 01:35:00 13.9 C 10.31 g/m*3 13.9 C 19.3 km/h
21 17-02-2022 01:40:00 13.9 C 10.31 g/m*3 13.9 C 25.7 km/h
22 17-02-2022 01:45:00 13.9 C 10.31 g/m*3 13.9 C 37 km/h
23 17-02-2022 01:50:00 14.1 C 10.32 g/m*3 14.1 C 33.8 km/h
24 17-02-2022 01:55:00 14.1 C 10.32 g/m*3 14.1 C 24.1 km/h
25 17-02-2022 02:00:00 14 C 10.25 g/m*3 14 C 17.7 km/h
Sensor: Nr:Datum:Temp:Abs-Feuchte:Windchill:Wind:
Aussen-T/F 26 17-02-2022 02:05:00 13.9 C 10.19 g/m*3 13.9 C 20.9 km/h
27 17-02-2022 02:10:00 14 C 10.25 g/m*3 14 C 24.1 km/h
28 17-02-2022 02:15:00 14 C 10.25 g/m*3 14 C 24.1 km/h
29 17-02-2022 02:20:00 14.1 C 10.19 g/m*3 14.1 C 24.1 km/h
30 17-02-2022 02:25:00 14.1 C 10.32 g/m*3 14.1 C 27.4 km/h
31 17-02-2022 02:30:00 14 C 10.37 g/m*3 14 C 20.9 km/h
32 17-02-2022 02:35:00 13.8 C 10.25 g/m*3 13.8 C 20.9 km/h
33 17-02-2022 02:40:00 13.7 C 10.18 g/m*3 13.7 C 17.7 km/h
34 17-02-2022 02:45:00 13.7 C 10.18 g/m*3 13.7 C 24.1 km/h
35 17-02-2022 02:50:00 13.7 C 10.18 g/m*3 13.7 C 29 km/h
36 17-02-2022 02:55:00 13.7 C 10.18 g/m*3 13.7 C 24.1 km/h
37 17-02-2022 03:00:00 13.6 C 9.77 g/m*3 13.6 C 32.2 km/h
38 17-02-2022 03:05:00 13.7 C 8.88 g/m*3 13.7 C 32.2 km/h
39 17-02-2022 03:10:00 13.9 C 8.15 g/m*3 13.9 C 35.4 km/h
40 17-02-2022 03:15:00 13.9 C 8.15 g/m*3 13.9 C 37 km/h
41 17-02-2022 03:20:00 13.8 C 7.98 g/m*3 13.8 C 29 km/h
42 17-02-2022 03:25:00 13.6 C 8 g/m*3 13.6 C 33.8 km/h
43 17-02-2022 03:30:00 13.4 C 8.14 g/m*3 13.4 C 25.7 km/h
44 17-02-2022 03:35:00 13.3 C 8.2 g/m*3 13.3 C 27.4 km/h
45 17-02-2022 03:40:00 13.1 C 8.1 g/m*3 13.1 C 22.5 km/h
46 17-02-2022 03:45:00 13 C 8.05 g/m*3 13 C 41.8 km/h
47 17-02-2022 03:50:00 13.1 C 8.1 g/m*3 13.1 C 41.8 km/h
48 17-02-2022 03:55:00 13 C 8.05 g/m*3 13 C 22.5 km/h
49 17-02-2022 04:00:00 12.9 C 7.89 g/m*3 12.9 C 30.6 km/h
50 17-02-2022 04:05:00 13 C 7.6 g/m*3 13 C 37 km/h
Sensor: Nr:Datum:Temp:Abs-Feuchte:Windchill:Wind:
Aussen-T/F 51 17-02-2022 04:10:00 13 C 7.48 g/m*3 13 C 35.4 km/h
52 17-02-2022 04:15:00 13 C 7.48 g/m*3 13 C 29 km/h
53 17-02-2022 04:20:00 12.9 C 7.44 g/m*3 12.9 C 37 km/h
54 17-02-2022 04:25:00 12.9 C 7.33 g/m*3 12.9 C 43.4 km/h
55 17-02-2022 04:30:00 12.8 C 7.28 g/m*3 12.8 C 27.4 km/h
56 17-02-2022 04:35:00 12.8 C 7.39 g/m*3 12.8 C 25.7 km/h
57 17-02-2022 04:40:00 12.7 C 7.12 g/m*3 12.7 C 41.8 km/h
58 17-02-2022 04:45:00 12.7 C 7.01 g/m*3 12.7 C 33.8 km/h
59 17-02-2022 04:50:00 12.6 C 6.97 g/m*3 12.6 C 30.6 km/h
60 17-02-2022 04:55:00 12.4 C 6.88 g/m*3 12.4 C 41.8 km/h
61 17-02-2022 05:00:00 12.4 C 6.88 g/m*3 12.4 C 33.8 km/h
62 17-02-2022 05:05:00 12.3 C 6.84 g/m*3 12.3 C 32.2 km/h
63 17-02-2022 05:10:00 12.3 C 6.84 g/m*3 12.3 C 32.2 km/h
64 17-02-2022 05:15:00 12.2 C 7.01 g/m*3 12.2 C 27.4 km/h
65 17-02-2022 05:20:00 12.1 C 6.97 g/m*3 12.1 C 38.6 km/h
66 17-02-2022 05:25:00 12.1 C 6.97 g/m*3 12.1 C 32.2 km/h
67 17-02-2022 05:30:00 12 C 7.03 g/m*3 12 C 22.5 km/h
68 17-02-2022 05:35:00 11.9 C 6.99 g/m*3 11.9 C 30.6 km/h
69 17-02-2022 05:40:00 11.8 C 6.95 g/m*3 11.8 C 35.4 km/h
70 17-02-2022 05:45:00 11.8 C 6.95 g/m*3 11.8 C 35.4 km/h
71 17-02-2022 05:50:00 11.8 C 6.95 g/m*3 11.8 C 32.2 km/h
72 17-02-2022 05:55:00 11.7 C 6.9 g/m*3 11.7 C 24.1 km/h
73 17-02-2022 06:00:00 11.7 C 6.9 g/m*3 11.7 C 29 km/h
74 17-02-2022 06:05:00 11.6 C 6.86 g/m*3 11.6 C 30.6 km/h
75 17-02-2022 06:10:00 11.6 C 6.96 g/m*3 11.6 C 30.6 km/h
Sensor: Nr:Datum:Temp:Abs-Feuchte:Windchill:Wind:
Aussen-T/F 76 17-02-2022 06:15:00 11.6 C 6.86 g/m*3 11.6 C 25.7 km/h
77 17-02-2022 06:20:00 11.5 C 6.82 g/m*3 11.5 C 27.4 km/h
78 17-02-2022 06:25:00 11.5 C 6.82 g/m*3 11.5 C 27.4 km/h
79 17-02-2022 06:30:00 11.4 C 6.77 g/m*3 11.4 C 32.2 km/h
80 17-02-2022 06:35:00 11.4 C 6.88 g/m*3 11.4 C 27.4 km/h
81 17-02-2022 06:40:00 11.3 C 6.83 g/m*3 11.3 C 20.9 km/h
82 17-02-2022 06:45:00 11.4 C 6.88 g/m*3 11.4 C 35.4 km/h
83 17-02-2022 06:50:00 11.4 C 6.88 g/m*3 11.4 C 27.4 km/h
84 17-02-2022 06:55:00 11.3 C 6.94 g/m*3 11.3 C 32.2 km/h
85 17-02-2022 07:00:00 11.3 C 6.94 g/m*3 11.3 C 24.1 km/h
86 17-02-2022 07:05:00 11.2 C 6.99 g/m*3 11.2 C 17.7 km/h
87 17-02-2022 07:10:00 11.2 C 6.99 g/m*3 11.2 C 24.1 km/h
88 17-02-2022 07:15:00 11.2 C 6.99 g/m*3 11.2 C 22.5 km/h
89 17-02-2022 07:20:00 11.2 C 6.99 g/m*3 11.2 C 24.1 km/h
90 17-02-2022 07:25:00 11.1 C 6.95 g/m*3 11.1 C 20.9 km/h
91 17-02-2022 07:30:00 11.1 C 6.85 g/m*3 11.1 C 25.7 km/h
92 17-02-2022 07:35:00 11.2 C 6.99 g/m*3 11.2 C 27.4 km/h
93 17-02-2022 07:40:00 11.1 C 6.95 g/m*3 11.1 C 30.6 km/h
94 17-02-2022 07:45:00 11 C 7.01 g/m*3 8.42 C 22.5 km/h
95 17-02-2022 07:50:00 10.8 C 6.92 g/m*3 8.04 C 24.1 km/h
96 17-02-2022 07:55:00 10.8 C 6.92 g/m*3 7.68 C 29 km/h
97 17-02-2022 08:00:00 10.8 C 6.92 g/m*3 8.04 C 24.1 km/h
98 17-02-2022 08:05:00 10.8 C 6.92 g/m*3 8.3 C 20.9 km/h
99 17-02-2022 08:10:00 10.8 C 7.02 g/m*3 8.45 C 19.3 km/h
100 17-02-2022 08:15:00 10.7 C 6.97 g/m*3 7.91 C 24.1 km/h
Sensor: Nr:Datum:Temp:Abs-Feuchte:Windchill:Wind:
Aussen-T/F 101 17-02-2022 08:20:00 10.6 C 6.93 g/m*3 8.2 C 19.3 km/h
102 17-02-2022 08:25:00 10.6 C 6.83 g/m*3 8.36 C 17.7 km/h
103 17-02-2022 08:30:00 10.5 C 6.69 g/m*3 8.4 C 16.1 km/h
104 17-02-2022 08:35:00 10.6 C 6.54 g/m*3 7.32 C 30.6 km/h
105 17-02-2022 08:40:00 10.7 C 6.58 g/m*3 7.91 C 24.1 km/h
106 17-02-2022 08:45:00 10.7 C 6.68 g/m*3 8.48 C 17.7 km/h
107 17-02-2022 08:50:00 10.6 C 6.64 g/m*3 7.42 C 29 km/h
108 17-02-2022 08:55:00 10.6 C 6.73 g/m*3 7.78 C 24.1 km/h
109 17-02-2022 09:00:00 10.5 C 6.69 g/m*3 7.19 C 30.6 km/h
110 17-02-2022 09:05:00 10.4 C 6.75 g/m*3 6.76 C 35.4 km/h
111 17-02-2022 09:10:00 10.4 C 6.65 g/m*3 7.06 C 30.6 km/h
112 17-02-2022 09:15:00 10.4 C 6.55 g/m*3 6.95 C 32.2 km/h
113 17-02-2022 09:20:00 10.4 C 6.46 g/m*3 7.16 C 29 km/h
114 17-02-2022 09:25:00 10.5 C 6.5 g/m*3 7.41 C 27.4 km/h
115 17-02-2022 09:30:00 10.6 C 6.54 g/m*3 7.03 C 35.4 km/h
116 17-02-2022 09:35:00 10.5 C 6.6 g/m*3 7.53 C 25.7 km/h
117 17-02-2022 09:40:00 10.4 C 6.55 g/m*3 7.28 C 27.4 km/h
118 17-02-2022 09:45:00 10.4 C 6.36 g/m*3 7.4 C 25.7 km/h
119 17-02-2022 09:50:00 10.5 C 6.3 g/m*3 7.65 C 24.1 km/h
120 17-02-2022 09:55:00 10.5 C 6.3 g/m*3 6.99 C 33.8 km/h
121 17-02-2022 10:00:00 10.4 C 6.26 g/m*3 6.95 C 32.2 km/h
122 17-02-2022 10:05:00 10.4 C 6.26 g/m*3 7.28 C 27.4 km/h
123 17-02-2022 10:10:00 10.4 C 6.26 g/m*3 7.28 C 27.4 km/h
124 17-02-2022 10:15:00 10.4 C 6.26 g/m*3 6.95 C 32.2 km/h
125 17-02-2022 10:20:00 10.5 C 6.21 g/m*3 7.19 C 30.6 km/h
Sensor: Nr:Datum:Temp:Abs-Feuchte:Windchill:Wind:
Aussen-T/F 126 17-02-2022 10:25:00 10.7 C 6.38 g/m*3 7.55 C 29 km/h
127 17-02-2022 10:30:00 10.8 C 6.23 g/m*3 7.2 C 37 km/h
128 17-02-2022 10:35:00 11 C 6.41 g/m*3 7.56 C 35.4 km/h
129 17-02-2022 10:40:00 11 C 6.31 g/m*3 7.56 C 35.4 km/h
130 17-02-2022 10:45:00 11.1 C 6.35 g/m*3 11.1 C 30.6 km/h
131 17-02-2022 10:50:00 11.1 C 6.14 g/m*3 11.1 C 41.8 km/h
132 17-02-2022 10:55:00 11.1 C 6.14 g/m*3 11.1 C 30.6 km/h
133 17-02-2022 11:00:00 11.1 C 6.25 g/m*3 11.1 C 30.6 km/h
134 17-02-2022 11:05:00 11.2 C 6.28 g/m*3 11.2 C 25.7 km/h
135 17-02-2022 11:10:00 11.3 C 6.12 g/m*3 11.3 C 32.2 km/h
136 17-02-2022 11:15:00 11.6 C 6.13 g/m*3 11.6 C 32.2 km/h
137 17-02-2022 11:20:00 11.7 C 5.86 g/m*3 11.7 C 30.6 km/h
138 17-02-2022 11:25:00 11.8 C 6 g/m*3 11.8 C 25.7 km/h
139 17-02-2022 11:30:00 11.8 C 5.89 g/m*3 11.8 C 32.2 km/h
140 17-02-2022 11:35:00 11.8 C 6 g/m*3 11.8 C 35.4 km/h
141 17-02-2022 11:40:00 11.8 C 6 g/m*3 11.8 C 38.6 km/h
142 17-02-2022 11:45:00 11.9 C 6.14 g/m*3 11.9 C 20.9 km/h
143 17-02-2022 11:50:00 12.1 C 6.01 g/m*3 12.1 C 30.6 km/h
144 17-02-2022 11:55:00 12.1 C 6.11 g/m*3 12.1 C 30.6 km/h
145 17-02-2022 12:00:00 12.1 C 6.11 g/m*3 12.1 C 24.1 km/h
146 17-02-2022 12:05:00 11.9 C 6.04 g/m*3 11.9 C 30.6 km/h
147 17-02-2022 12:10:00 11.7 C 6.07 g/m*3 11.7 C 37 km/h
148 17-02-2022 12:15:00 11.4 C 6.06 g/m*3 11.4 C 37 km/h
149 17-02-2022 12:20:00 11.3 C 6.12 g/m*3 11.3 C 19.3 km/h
150 17-02-2022 12:25:00 11.3 C 6.12 g/m*3 11.3 C 20.9 km/h
Sensor: Nr:Datum:Temp:Abs-Feuchte:Windchill:Wind:
Aussen-T/F 151 17-02-2022 12:30:00 11.4 C 6.26 g/m*3 11.4 C 17.7 km/h
152 17-02-2022 12:35:00 11.4 C 6.26 g/m*3 11.4 C 17.7 km/h
153 17-02-2022 12:40:00 11.4 C 6.06 g/m*3 11.4 C 24.1 km/h
154 17-02-2022 12:45:00 11.5 C 6.09 g/m*3 11.5 C 20.9 km/h
155 17-02-2022 12:50:00 11.4 C 6.06 g/m*3 11.4 C 25.7 km/h
156 17-02-2022 12:55:00 11.3 C 6.12 g/m*3 11.3 C 22.5 km/h
157 17-02-2022 13:00:00 11.2 C 6.39 g/m*3 11.2 C 33.8 km/h
158 17-02-2022 13:05:00 10.4 C 6.65 g/m*3 6.76 C 35.4 km/h
159 17-02-2022 13:10:00 9.6 C 6.87 g/m*3 5.61 C 37 km/h
160 17-02-2022 13:15:00 8.8 C 6.88 g/m*3 5.62 C 22.5 km/h
161 17-02-2022 13:20:00 8.3 C 6.91 g/m*3 4.98 C 22.5 km/h
162 17-02-2022 13:25:00 8.1 C 6.99 g/m*3 4.58 C 24.1 km/h
163 17-02-2022 13:30:00 8.1 C 6.99 g/m*3 6.13 C 11.3 km/h
164 17-02-2022 13:35:00 8.2 C 7.12 g/m*3 5.99 C 12.9 km/h
165 17-02-2022 13:40:00 8.4 C 7.21 g/m*3 6.49 C 11.3 km/h
166 17-02-2022 13:45:00 8.6 C 7.22 g/m*3 5.37 C 22.5 km/h
167 17-02-2022 13:50:00 8.8 C 7.14 g/m*3 5.62 C 22.5 km/h
168 17-02-2022 13:55:00 8.9 C 7.1 g/m*3 5.9 C 20.9 km/h
169 17-02-2022 14:00:00 9 C 7.14 g/m*3 5.87 C 22.5 km/h
170 17-02-2022 14:05:00 9.2 C 7.05 g/m*3 6.61 C 17.7 km/h
171 17-02-2022 14:10:00 9.4 C 7.15 g/m*3 7.04 C 16.1 km/h
172 17-02-2022 14:15:00 9.7 C 7.1 g/m*3 6.63 C 24.1 km/h
173 17-02-2022 14:20:00 9.9 C 7.1 g/m*3 7.02 C 22.5 km/h
174 17-02-2022 14:25:00 9.9 C 7.1 g/m*3 6.4 C 30.6 km/h
175 17-02-2022 14:30:00 10.1 C 7.09 g/m*3 7.73 C 17.7 km/h
Sensor: Nr:Datum:Temp:Abs-Feuchte:Windchill:Wind:
Aussen-T/F 176 17-02-2022 14:35:00 10.3 C 7.09 g/m*3 7.98 C 17.7 km/h
177 17-02-2022 14:40:00 10.2 C 7.04 g/m*3 7.54 C 20.9 km/h
178 17-02-2022 14:45:00 10.3 C 6.99 g/m*3 7.98 C 17.7 km/h
179 17-02-2022 14:50:00 10.6 C 7.03 g/m*3 8.05 C 20.9 km/h
180 17-02-2022 14:55:00 10.8 C 7.12 g/m*3 8.45 C 19.3 km/h
181 17-02-2022 15:00:00 10.8 C 6.92 g/m*3 8.04 C 24.1 km/h
182 17-02-2022 15:05:00 10.7 C 6.68 g/m*3 8.04 C 22.5 km/h
183 17-02-2022 15:10:00 10.8 C 6.72 g/m*3 8.3 C 20.9 km/h
184 17-02-2022 15:15:00 10.8 C 6.72 g/m*3 8.3 C 20.9 km/h
185 17-02-2022 15:20:00 10.9 C 6.76 g/m*3 8.43 C 20.9 km/h
186 17-02-2022 15:25:00 11.1 C 6.85 g/m*3 11.1 C 19.3 km/h
187 17-02-2022 15:30:00 11.5 C 6.82 g/m*3 11.5 C 17.7 km/h
188 17-02-2022 15:35:00 11.9 C 6.67 g/m*3 11.9 C 20.9 km/h
189 17-02-2022 15:40:00 12 C 6.71 g/m*3 12 C 24.1 km/h
190 17-02-2022 15:45:00 11.9 C 6.78 g/m*3 11.9 C 22.5 km/h
191 17-02-2022 15:50:00 11.7 C 6.8 g/m*3 11.7 C 24.1 km/h
192 17-02-2022 15:55:00 11.5 C 6.82 g/m*3 11.5 C 25.7 km/h
193 17-02-2022 16:00:00 11.4 C 6.77 g/m*3 11.4 C 27.4 km/h
194 17-02-2022 16:05:00 11.3 C 6.83 g/m*3 11.3 C 25.7 km/h
195 17-02-2022 16:10:00 11.4 C 6.77 g/m*3 11.4 C 29 km/h
196 17-02-2022 16:15:00 11.4 C 6.67 g/m*3 11.4 C 22.5 km/h
197 17-02-2022 16:20:00 11.6 C 6.65 g/m*3 11.6 C 17.7 km/h
198 17-02-2022 16:25:00 11.6 C 6.44 g/m*3 11.6 C 27.4 km/h
199 17-02-2022 16:30:00 11.4 C 6.47 g/m*3 11.4 C 24.1 km/h
200 17-02-2022 16:35:00 11.4 C 6.47 g/m*3 11.4 C 22.5 km/h
Sensor: Nr:Datum:Temp:Abs-Feuchte:Windchill:Wind:
Aussen-T/F 201 17-02-2022 16:40:00 11.4 C 6.47 g/m*3 11.4 C 19.3 km/h
202 17-02-2022 16:45:00 11.3 C 6.43 g/m*3 11.3 C 25.7 km/h
203 17-02-2022 16:50:00 11.3 C 6.53 g/m*3 11.3 C 25.7 km/h
204 17-02-2022 16:55:00 11.4 C 6.47 g/m*3 11.4 C 35.4 km/h
205 17-02-2022 17:00:00 11.4 C 6.47 g/m*3 11.4 C 29 km/h
206 17-02-2022 17:05:00 11.4 C 6.47 g/m*3 11.4 C 19.3 km/h
207 17-02-2022 17:10:00 11.3 C 6.43 g/m*3 11.3 C 16.1 km/h
208 17-02-2022 17:15:00 11.3 C 6.32 g/m*3 11.3 C 20.9 km/h
209 17-02-2022 17:20:00 11.3 C 6.32 g/m*3 11.3 C 16.1 km/h
210 17-02-2022 17:25:00 11.2 C 6.28 g/m*3 11.2 C 12.9 km/h
211 17-02-2022 17:30:00 11.1 C 6.25 g/m*3 11.1 C 19.3 km/h
212 17-02-2022 17:35:00 10.9 C 6.17 g/m*3 8.9 C 16.1 km/h
213 17-02-2022 17:40:00 10.8 C 6.23 g/m*3 8.61 C 17.7 km/h
214 17-02-2022 17:45:00 10.7 C 6.19 g/m*3 8.18 C 20.9 km/h
215 17-02-2022 17:50:00 10.5 C 6.01 g/m*3 7.92 C 20.9 km/h
216 17-02-2022 17:55:00 10.5 C 6.01 g/m*3 7.79 C 22.5 km/h
217 17-02-2022 18:00:00 10.4 C 5.98 g/m*3 8.11 C 17.7 km/h
218 17-02-2022 18:05:00 10.3 C 6.03 g/m*3 8.16 C 16.1 km/h
219 17-02-2022 18:10:00 10.2 C 6 g/m*3 7.86 C 17.7 km/h
220 17-02-2022 18:15:00 10.2 C 6 g/m*3 8.03 C 16.1 km/h
221 17-02-2022 18:20:00 10.1 C 6.15 g/m*3 8.54 C 11.3 km/h
222 17-02-2022 18:25:00 9.9 C 6.16 g/m*3 8.3 C 11.3 km/h
223 17-02-2022 18:30:00 9.8 C 6.03 g/m*3 7.94 C 12.9 km/h
224 17-02-2022 18:35:00 9.7 C 6.08 g/m*3 8.33 C 9.7 km/h
225 17-02-2022 18:40:00 9.6 C 6.14 g/m*3 7.11 C 17.7 km/h
Sensor: Nr:Datum:Temp:Abs-Feuchte:Windchill:Wind:
Aussen-T/F 226 17-02-2022 18:45:00 9.6 C 5.95 g/m*3 6.24 C 27.4 km/h
227 17-02-2022 18:50:00 9.7 C 5.99 g/m*3 6.63 C 24.1 km/h
228 17-02-2022 18:55:00 9.8 C 5.85 g/m*3 6.89 C 22.5 km/h
229 17-02-2022 19:00:00 9.8 C 5.66 g/m*3 7.19 C 19.3 km/h
230 17-02-2022 19:05:00 9.8 C 5.66 g/m*3 7.36 C 17.7 km/h
231 17-02-2022 19:10:00 9.8 C 5.66 g/m*3 7.36 C 17.7 km/h
232 17-02-2022 19:15:00 9.8 C 5.75 g/m*3 7.19 C 19.3 km/h
233 17-02-2022 19:20:00 9.7 C 5.72 g/m*3 6.91 C 20.9 km/h
234 17-02-2022 19:25:00 9.7 C 5.72 g/m*3 7.61 C 14.5 km/h
235 17-02-2022 19:30:00 9.6 C 5.77 g/m*3 7.29 C 16.1 km/h
236 17-02-2022 19:35:00 9.6 C 5.77 g/m*3 7.7 C 12.9 km/h
237 17-02-2022 19:40:00 9.4 C 5.79 g/m*3 7.04 C 16.1 km/h
238 17-02-2022 19:45:00 9.4 C 5.88 g/m*3 7.24 C 14.5 km/h
239 17-02-2022 19:50:00 9.3 C 5.93 g/m*3 7.33 C 12.9 km/h
240 17-02-2022 19:55:00 9.2 C 5.89 g/m*3 7.21 C 12.9 km/h
241 17-02-2022 20:00:00 9.1 C 5.94 g/m*3 7.33 C 11.3 km/h
242 17-02-2022 20:05:00 9 C 5.91 g/m*3 7.21 C 11.3 km/h
243 17-02-2022 20:10:00 8.9 C 5.87 g/m*3 6.85 C 12.9 km/h
244 17-02-2022 20:15:00 8.9 C 5.87 g/m*3 6.85 C 12.9 km/h
245 17-02-2022 20:20:00 8.9 C 5.96 g/m*3 6.23 C 17.7 km/h
246 17-02-2022 20:25:00 8.9 C 5.96 g/m*3 7.37 C 9.7 km/h
247 17-02-2022 20:30:00 8.8 C 6.01 g/m*3 8.8 C 4.8 km/h
248 17-02-2022 20:35:00 8.8 C 6.01 g/m*3 6.72 C 12.9 km/h
249 17-02-2022 20:40:00 8.7 C 5.97 g/m*3 6.6 C 12.9 km/h
250 17-02-2022 20:45:00 8.7 C 5.97 g/m*3 7.46 C 8.1 km/h
Sensor: Nr:Datum:Temp:Abs-Feuchte:Windchill:Wind:
Aussen-T/F 251 17-02-2022 20:50:00 8.8 C 5.92 g/m*3 7.25 C 9.7 km/h
252 17-02-2022 20:55:00 8.9 C 5.96 g/m*3 7.09 C 11.3 km/h
253 17-02-2022 21:00:00 9 C 5.91 g/m*3 7.21 C 11.3 km/h
254 17-02-2022 21:05:00 9.1 C 5.94 g/m*3 6.87 C 14.5 km/h
255 17-02-2022 21:10:00 9.1 C 5.86 g/m*3 6.67 C 16.1 km/h
256 17-02-2022 21:15:00 9.2 C 5.71 g/m*3 6.61 C 17.7 km/h
257 17-02-2022 21:20:00 9.3 C 5.75 g/m*3 7.33 C 12.9 km/h
258 17-02-2022 21:25:00 9.2 C 5.71 g/m*3 6.99 C 14.5 km/h
259 17-02-2022 21:30:00 9.2 C 5.71 g/m*3 7.73 C 9.7 km/h
260 17-02-2022 21:35:00 9.2 C 5.71 g/m*3 7.21 C 12.9 km/h
261 17-02-2022 21:40:00 9.2 C 5.8 g/m*3 8.05 C 8.1 km/h
262 17-02-2022 21:45:00 9.1 C 5.77 g/m*3 9.1 C 3.2 km/h
263 17-02-2022 21:50:00 9 C 5.91 g/m*3 9 C 4.8 km/h
264 17-02-2022 21:55:00 8.9 C 5.78 g/m*3 8.9 C 1.6 km/h
265 17-02-2022 22:00:00 8.8 C 5.74 g/m*3 7.98 C 6.4 km/h
266 17-02-2022 22:05:00 8.7 C 5.88 g/m*3 8.7 C 4.8 km/h
267 17-02-2022 22:10:00 8.7 C 5.71 g/m*3 8.7 C 4.8 km/h
268 17-02-2022 22:15:00 8.6 C 5.76 g/m*3 8.6 C 3.2 km/h
269 17-02-2022 22:20:00 8.7 C 5.71 g/m*3 6.38 C 14.5 km/h
270 17-02-2022 22:25:00 8.8 C 5.74 g/m*3 6.97 C 11.3 km/h
271 17-02-2022 22:30:00 9 C 5.82 g/m*3 6.75 C 14.5 km/h
272 17-02-2022 22:35:00 9 C 5.73 g/m*3 7.81 C 8.1 km/h
273 17-02-2022 22:40:00 9 C 5.73 g/m*3 9 C 3.2 km/h
274 17-02-2022 22:45:00 8.9 C 5.78 g/m*3 7.09 C 11.3 km/h
275 17-02-2022 22:50:00 8.9 C 5.87 g/m*3 7.69 C 8.1 km/h
Sensor: Nr:Datum:Temp:Abs-Feuchte:Windchill:Wind:
Aussen-T/F 276 17-02-2022 22:55:00 8.7 C 5.79 g/m*3 7.87 C 6.4 km/h
277 17-02-2022 23:00:00 8.6 C 5.76 g/m*3 7.75 C 6.4 km/h
278 17-02-2022 23:05:00 8.6 C 5.93 g/m*3 8.6 C 4.8 km/h
279 17-02-2022 23:10:00 8.5 C 5.89 g/m*3 7.64 C 6.4 km/h
280 17-02-2022 23:15:00 8.4 C 5.85 g/m*3 7.52 C 6.4 km/h
281 17-02-2022 23:20:00 8.4 C 5.85 g/m*3 6.49 C 11.3 km/h
282 17-02-2022 23:25:00 8.4 C 5.94 g/m*3 8.4 C 4.8 km/h
283 17-02-2022 23:30:00 8.4 C 6.02 g/m*3 7.11 C 8.1 km/h
284 17-02-2022 23:35:00 8.4 C 5.85 g/m*3 5.8 C 16.1 km/h
285 17-02-2022 23:40:00 8.6 C 5.93 g/m*3 5.86 C 17.7 km/h
286 17-02-2022 23:45:00 8.7 C 5.97 g/m*3 7.13 C 9.7 km/h
287 17-02-2022 23:50:00 8.7 C 5.97 g/m*3 6.38 C 14.5 km/h
288 17-02-2022 23:55:00 8.7 C 6.05 g/m*3 6.6 C 12.9 km/h

Legende:
   Min
   Max


Maximal/Minimal-Werte vom 17.02.2022 - 17.02.2022

Sensor Min Max Avg
Temp
(Aussen-T/F)
8.1 °C
17-02-2022  13:25:00
14.3 °C
17-02-2022  00:00:00
11.07 °C
Abs-Feuchte
(Aussen-T/F)
5.66 g/m*3
17-02-2022  19:00:00
10.57 g/m*3
17-02-2022  00:00:00
6.98 g/m*3
Windchill
(Aussen-T/F)
4.58 C
17-02-2022  13:25:00
14.3 C
17-02-2022  00:00:00
9.91 C

Die Daten stammen von einer Davis Vantage Pro 2 Wetter-Station und werden unter Linux mit der Software wview2wettercgi und aufbereitet. Alle Angaben erfolgen ohne Gewähr für ihre Vollständigkeit oder Richtigkeit.
Kontakt: Rainer Krienke krienke@uni-koblenz.de . Meine Webseiten an der Uni Koblenz oder privat.
Version: $Revision: 0.78 $